createdAt,value
2019-03-04T00:00:39.098Z,14.65
2019-03-04T00:01:55.401Z,14.63
2019-03-04T00:03:00.532Z,14.65
2019-03-04T00:04:05.672Z,14.65
2019-03-04T00:05:10.717Z,14.65
2019-03-04T00:06:15.657Z,14.66
2019-03-04T00:07:20.964Z,14.66
2019-03-04T00:08:25.927Z,14.65
2019-03-04T00:09:31.025Z,14.66
2019-03-04T00:10:36.102Z,14.67
2019-03-04T00:11:41.027Z,14.66
2019-03-04T00:12:45.995Z,14.67
2019-03-04T00:13:51.055Z,14.67
2019-03-04T00:14:56.099Z,14.68
2019-03-04T00:16:01.112Z,14.69
2019-03-04T00:17:06.665Z,14.68
2019-03-04T00:18:11.673Z,14.69
2019-03-04T00:19:16.772Z,14.70
2019-03-04T00:20:21.854Z,14.70
2019-03-04T00:21:26.850Z,14.70
2019-03-04T00:22:31.993Z,14.71
2019-03-04T00:23:37.037Z,14.71
2019-03-04T00:24:42.322Z,14.72
2019-03-04T00:25:47.719Z,14.71
2019-03-04T00:26:53.410Z,14.70
2019-03-04T00:27:58.487Z,14.71
2019-03-04T00:29:03.430Z,14.70
2019-03-04T00:30:09.187Z,14.71
2019-03-04T00:31:14.316Z,14.70
2019-03-04T00:32:19.280Z,14.70
2019-03-04T00:33:24.504Z,14.71
2019-03-04T00:34:29.397Z,14.70
2019-03-04T00:35:34.411Z,14.69
2019-03-04T00:36:39.450Z,14.68
2019-03-04T00:37:44.855Z,14.66
2019-03-04T00:38:49.998Z,14.66
2019-03-04T00:39:56.732Z,14.64
2019-03-04T00:41:02.105Z,14.63
2019-03-04T00:42:07.119Z,14.61
2019-03-04T00:43:12.181Z,14.60
2019-03-04T00:44:17.107Z,14.58
2019-03-04T00:45:22.240Z,14.58
2019-03-04T00:46:27.199Z,14.57
2019-03-04T00:47:32.439Z,14.56
2019-03-04T00:48:37.441Z,14.55
2019-03-04T00:49:42.687Z,14.55
2019-03-04T00:50:47.606Z,14.55
2019-03-04T00:51:52.534Z,14.56
2019-03-04T00:52:58.063Z,14.56
2019-03-04T00:54:03.219Z,14.56
2019-03-04T00:55:08.472Z,14.57
2019-03-04T00:56:13.555Z,14.57
2019-03-04T00:57:18.516Z,14.58
2019-03-04T00:58:23.565Z,14.57
2019-03-04T00:59:28.470Z,14.58
2019-03-04T01:00:33.558Z,14.59
2019-03-04T01:01:38.518Z,14.62
2019-03-04T01:02:43.648Z,14.65
2019-03-04T01:03:48.577Z,14.65
2019-03-04T01:04:53.915Z,14.67
2019-03-04T01:05:59.137Z,14.68
2019-03-04T01:07:04.460Z,14.68
2019-03-04T01:08:11.684Z,14.69
2019-03-04T01:09:16.748Z,14.69
2019-03-04T01:10:21.967Z,14.69
2019-03-04T01:11:27.223Z,14.71
2019-03-04T01:12:32.250Z,14.71
2019-03-04T01:13:37.221Z,14.71
2019-03-04T01:14:42.377Z,14.73
2019-03-04T01:15:47.398Z,14.74
2019-03-04T01:16:52.446Z,14.74
2019-03-04T01:17:57.626Z,14.74
2019-03-04T01:19:02.852Z,14.76
2019-03-04T01:20:09.342Z,14.75
2019-03-04T01:21:14.377Z,14.76
2019-03-04T01:22:19.420Z,14.78
2019-03-04T01:24:28.024Z,14.79
2019-03-04T01:25:33.336Z,14.80
2019-03-04T01:26:38.404Z,14.80
2019-03-04T01:27:43.507Z,14.81
2019-03-04T01:28:48.641Z,14.81
2019-03-04T01:29:53.759Z,14.80
2019-03-04T01:30:58.876Z,14.80
2019-03-04T01:32:03.927Z,14.79
2019-03-04T01:33:08.921Z,14.79
2019-03-04T01:34:14.149Z,14.78
2019-03-04T01:35:19.233Z,14.78
2019-03-04T01:36:24.313Z,14.77
2019-03-04T01:37:29.311Z,14.75
2019-03-04T01:38:34.394Z,14.75
2019-03-04T01:39:39.405Z,14.74
2019-03-04T01:40:44.432Z,14.75
2019-03-04T01:41:49.514Z,14.72
2019-03-04T01:42:54.528Z,14.71
2019-03-04T01:43:59.603Z,14.72
2019-03-04T01:45:05.200Z,14.70
2019-03-04T01:46:10.112Z,14.69
2019-03-04T01:47:15.307Z,14.69
2019-03-04T01:48:20.228Z,14.67
2019-03-04T01:49:25.220Z,14.67
2019-03-04T01:50:30.295Z,14.65
2019-03-04T01:51:35.178Z,14.65
2019-03-04T01:52:40.323Z,14.63
2019-03-04T01:53:45.534Z,14.63
2019-03-04T01:54:50.573Z,14.63
2019-03-04T01:55:55.727Z,14.61
2019-03-04T01:57:00.698Z,14.60
2019-03-04T01:58:05.779Z,14.60
2019-03-04T01:59:10.676Z,14.59
2019-03-04T02:00:19.395Z,14.58
2019-03-04T02:01:24.413Z,14.57
2019-03-04T02:02:29.718Z,14.57
2019-03-04T02:03:34.898Z,14.57
2019-03-04T02:04:40.142Z,14.56
2019-03-04T02:05:45.201Z,14.56
2019-03-04T02:06:50.326Z,14.55
2019-03-04T02:07:55.421Z,14.55
2019-03-04T02:09:00.388Z,14.55
2019-03-04T02:10:06.446Z,14.54
2019-03-04T02:11:11.741Z,14.54
2019-03-04T02:12:17.050Z,14.53
2019-03-04T02:13:22.021Z,14.52
2019-03-04T02:14:26.950Z,14.52
2019-03-04T02:15:32.052Z,14.53
2019-03-04T02:16:36.989Z,14.52
2019-03-04T02:17:42.031Z,14.52
2019-03-04T02:18:47.024Z,14.51
2019-03-04T02:19:52.422Z,14.50
2019-03-04T02:20:57.711Z,14.50
2019-03-04T02:22:02.763Z,14.49
2019-03-04T02:23:07.759Z,14.48
2019-03-04T02:24:26.071Z,14.46
2019-03-04T02:26:19.548Z,14.46
2019-03-04T02:27:24.647Z,14.44
2019-03-04T02:28:29.690Z,14.42
2019-03-04T02:29:34.755Z,14.41
2019-03-04T02:30:40.170Z,14.39
2019-03-04T02:31:45.074Z,14.39
2019-03-04T02:32:50.383Z,14.37
2019-03-04T02:33:55.318Z,14.36
2019-03-04T02:35:00.381Z,14.33
2019-03-04T02:36:05.389Z,14.33
2019-03-04T02:37:10.679Z,14.31
2019-03-04T02:38:15.648Z,14.31
2019-03-04T02:39:20.721Z,14.29
2019-03-04T02:40:25.717Z,14.29
2019-03-04T02:41:31.437Z,14.30
2019-03-04T02:42:36.605Z,14.30
2019-03-04T02:43:41.585Z,14.31
2019-03-04T02:44:46.491Z,14.32
2019-03-04T02:45:51.744Z,14.34
2019-03-04T02:46:56.721Z,14.34
2019-03-04T02:48:02.203Z,14.35
2019-03-04T02:49:07.154Z,14.37
2019-03-04T02:50:12.299Z,14.38
2019-03-04T02:51:17.363Z,14.37
2019-03-04T02:52:22.433Z,14.39
2019-03-04T02:53:29.733Z,14.40
2019-03-04T02:54:39.855Z,14.42
2019-03-04T02:55:47.988Z,14.43
2019-03-04T02:56:56.746Z,14.43
2019-03-04T02:58:05.005Z,14.45
2019-03-04T02:59:10.429Z,14.45
2019-03-04T03:00:26.919Z,14.45
2019-03-04T03:01:34.962Z,14.45
2019-03-04T03:02:40.655Z,14.44
2019-03-04T03:03:45.822Z,14.43
2019-03-04T03:04:50.852Z,14.44
2019-03-04T03:05:55.919Z,14.44
2019-03-04T03:07:00.917Z,14.45
2019-03-04T03:08:05.941Z,14.45
2019-03-04T03:09:11.854Z,14.46
2019-03-04T03:10:17.183Z,14.48
2019-03-04T03:11:22.200Z,14.48
2019-03-04T03:12:27.444Z,14.48
2019-03-04T03:13:32.602Z,14.49
2019-03-04T03:14:37.492Z,14.49
2019-03-04T03:15:42.437Z,14.51
2019-03-04T03:16:47.347Z,14.53
2019-03-04T03:17:52.320Z,14.54
2019-03-04T03:18:57.346Z,14.56
2019-03-04T03:20:02.346Z,14.58
2019-03-04T03:21:07.758Z,14.60
2019-03-04T03:22:12.743Z,14.64
2019-03-04T03:23:17.804Z,14.66
2019-03-04T03:24:22.757Z,14.67
2019-03-04T03:25:27.775Z,14.69
2019-03-04T03:26:32.836Z,14.70
2019-03-04T03:27:37.867Z,14.74
2019-03-04T03:28:42.839Z,14.77
2019-03-04T03:29:47.997Z,14.79
2019-03-04T03:30:53.143Z,14.81
2019-03-04T03:31:58.155Z,14.84
2019-03-04T03:33:03.096Z,14.84
2019-03-04T03:34:08.332Z,14.86
2019-03-04T03:35:13.505Z,14.88
2019-03-04T03:36:18.497Z,14.88
2019-03-04T03:37:23.788Z,14.90
2019-03-04T03:38:28.846Z,14.91
2019-03-04T03:39:33.808Z,14.90
2019-03-04T03:40:38.893Z,14.92
2019-03-04T03:41:43.914Z,14.93
2019-03-04T03:42:49.131Z,14.93
2019-03-04T03:43:54.421Z,14.93
2019-03-04T03:44:59.470Z,14.92
2019-03-04T03:46:05.077Z,14.92
2019-03-04T03:47:10.680Z,14.90
2019-03-04T03:48:15.721Z,14.90
2019-03-04T03:49:20.772Z,14.90
2019-03-04T03:50:25.674Z,14.89
2019-03-04T03:51:30.601Z,14.87
2019-03-04T03:52:35.815Z,14.88
2019-03-04T03:53:40.829Z,14.86
2019-03-04T03:54:45.700Z,14.87
2019-03-04T03:55:50.734Z,14.84
2019-03-04T03:56:55.707Z,14.84
2019-03-04T03:58:00.732Z,14.83
2019-03-04T03:59:05.988Z,14.84
2019-03-04T04:00:14.219Z,14.83
2019-03-04T04:01:19.392Z,14.83
2019-03-04T04:02:24.672Z,14.82
2019-03-04T04:03:29.720Z,14.80
2019-03-04T04:04:34.881Z,14.80
2019-03-04T04:05:39.862Z,14.78
2019-03-04T04:06:45.314Z,14.77
2019-03-04T04:07:50.397Z,14.74
2019-03-04T04:08:55.678Z,14.76
2019-03-04T04:10:00.962Z,14.75
2019-03-04T04:11:06.227Z,14.77
2019-03-04T04:12:11.349Z,14.77
2019-03-04T04:13:16.499Z,14.78
2019-03-04T04:14:21.764Z,14.80
2019-03-04T04:15:26.863Z,14.80
2019-03-04T04:16:32.115Z,14.80
2019-03-04T04:17:37.160Z,14.83
2019-03-04T04:18:42.227Z,14.84
2019-03-04T04:19:47.538Z,14.85
2019-03-04T04:20:52.596Z,14.86
2019-03-04T04:21:57.651Z,14.87
2019-03-04T04:23:02.698Z,14.89
2019-03-04T04:24:07.937Z,14.90
2019-03-04T04:25:13.325Z,14.91
2019-03-04T04:26:21.626Z,14.92
2019-03-04T04:27:26.925Z,14.93
2019-03-04T04:28:31.916Z,14.93
2019-03-04T04:29:38.297Z,14.92
2019-03-04T04:30:43.312Z,14.93
2019-03-04T04:31:48.311Z,14.94
2019-03-04T04:32:53.553Z,14.93
2019-03-04T04:33:58.445Z,14.92
2019-03-04T04:35:03.853Z,14.93
2019-03-04T04:36:08.777Z,14.92
2019-03-04T04:37:13.721Z,14.92
2019-03-04T04:38:18.896Z,14.91
2019-03-04T04:39:23.973Z,14.92
2019-03-04T04:40:29.031Z,14.90
2019-03-04T04:41:34.244Z,14.89
2019-03-04T04:42:39.261Z,14.89
2019-03-04T04:43:44.513Z,14.89
2019-03-04T04:44:49.541Z,14.86
2019-03-04T04:45:54.544Z,14.84
2019-03-04T04:47:01.451Z,14.82
2019-03-04T04:48:06.580Z,14.79
2019-03-04T04:49:11.589Z,14.77
2019-03-04T04:50:16.821Z,14.74
2019-03-04T04:51:21.887Z,14.72
2019-03-04T04:52:27.061Z,14.70
2019-03-04T04:53:32.301Z,14.67
2019-03-04T04:54:37.268Z,14.66
2019-03-04T04:55:42.657Z,14.63
2019-03-04T04:56:47.732Z,14.60
2019-03-04T04:57:52.731Z,14.59
2019-03-04T04:58:58.015Z,14.57
2019-03-04T05:00:03.061Z,14.56
2019-03-04T05:01:08.064Z,14.55
2019-03-04T05:02:12.990Z,14.53
2019-03-04T05:03:17.996Z,14.51
2019-03-04T05:04:23.235Z,14.51
2019-03-04T05:05:28.214Z,14.49
2019-03-04T05:06:34.119Z,14.48
2019-03-04T05:07:42.328Z,14.48
2019-03-04T05:08:47.500Z,14.48
2019-03-04T05:09:52.505Z,14.48
2019-03-04T05:10:57.641Z,14.48
2019-03-04T05:12:02.556Z,14.49
2019-03-04T05:13:07.837Z,14.49
2019-03-04T05:14:12.816Z,14.50
2019-03-04T05:15:17.978Z,14.49
2019-03-04T05:16:23.094Z,14.50
2019-03-04T05:17:28.267Z,14.50
2019-03-04T05:18:33.363Z,14.52
2019-03-04T05:19:38.711Z,14.53
2019-03-04T05:20:43.672Z,14.55
2019-03-04T05:21:48.765Z,14.56
2019-03-04T05:22:53.788Z,14.57
2019-03-04T05:23:58.697Z,14.57
2019-03-04T05:25:04.130Z,14.57
2019-03-04T05:26:09.139Z,14.56
2019-03-04T05:27:14.129Z,14.57
2019-03-04T05:28:19.068Z,14.57
2019-03-04T05:29:23.980Z,14.58
2019-03-04T05:30:28.980Z,14.57
2019-03-04T05:31:33.871Z,14.57
2019-03-04T05:32:39.213Z,14.57
2019-03-04T05:33:44.153Z,14.58
2019-03-04T05:34:49.112Z,14.58
2019-03-04T05:35:54.005Z,14.59
2019-03-04T05:36:58.976Z,14.60
2019-03-04T05:38:04.241Z,14.60
2019-03-04T05:39:09.886Z,14.61
2019-03-04T05:40:16.082Z,14.62
2019-03-04T05:41:21.332Z,14.62
2019-03-04T05:42:26.446Z,14.63
2019-03-04T05:43:31.375Z,14.64
2019-03-04T05:44:36.593Z,14.66
2019-03-04T05:45:41.467Z,14.65
2019-03-04T05:46:46.499Z,14.66
2019-03-04T05:47:51.556Z,14.67
2019-03-04T05:48:56.533Z,14.68
2019-03-04T05:50:01.467Z,14.68
2019-03-04T05:51:06.725Z,14.67
2019-03-04T05:52:11.802Z,14.68
2019-03-04T05:53:16.788Z,14.68
2019-03-04T05:54:21.791Z,14.69
2019-03-04T05:55:26.786Z,14.68
2019-03-04T05:56:31.981Z,14.66
2019-03-04T05:57:37.086Z,14.65
2019-03-04T05:58:42.107Z,14.63
2019-03-04T05:59:47.213Z,14.59
2019-03-04T06:01:36.366Z,14.55
2019-03-04T06:02:41.477Z,14.32
2019-03-04T06:03:47.314Z,13.68
2019-03-04T06:04:52.650Z,13.26
2019-03-04T06:05:57.568Z,12.91
2019-03-04T06:07:05.975Z,12.63
2019-03-04T06:08:11.229Z,12.36
2019-03-04T06:09:16.420Z,12.13
2019-03-04T06:10:21.502Z,11.92
2019-03-04T06:11:26.669Z,11.73
2019-03-04T06:12:31.793Z,11.58
2019-03-04T06:13:36.699Z,11.46
2019-03-04T06:14:41.664Z,11.35
2019-03-04T06:15:46.833Z,11.27
2019-03-04T06:16:51.823Z,11.20
2019-03-04T06:17:56.861Z,11.12
2019-03-04T06:19:01.915Z,11.08
2019-03-04T06:20:07.902Z,11.05
2019-03-04T06:21:12.866Z,11.00
2019-03-04T06:22:17.984Z,10.95
2019-03-04T06:23:23.211Z,10.90
2019-03-04T06:24:28.409Z,10.85
2019-03-04T06:25:33.675Z,10.82
2019-03-04T06:26:38.913Z,10.78
2019-03-04T06:27:43.929Z,10.72
2019-03-04T06:28:49.246Z,10.64
2019-03-04T06:29:54.239Z,10.57
2019-03-04T06:30:59.166Z,10.53
2019-03-04T06:32:04.310Z,10.46
2019-03-04T06:33:09.318Z,10.44
2019-03-04T06:34:14.446Z,10.43
2019-03-04T06:35:19.636Z,10.42
2019-03-04T06:36:24.699Z,10.42
2019-03-04T06:37:29.621Z,10.43
2019-03-04T06:38:34.648Z,10.44
2019-03-04T06:39:39.693Z,10.49
2019-03-04T06:40:44.952Z,10.49
2019-03-04T06:41:49.944Z,10.52
2019-03-04T06:42:55.412Z,10.51
2019-03-04T06:44:00.868Z,10.51
2019-03-04T06:45:08.100Z,10.50
2019-03-04T06:46:13.091Z,10.52
2019-03-04T06:47:18.075Z,10.52
2019-03-04T06:48:23.080Z,10.54
2019-03-04T06:49:28.070Z,10.57
2019-03-04T06:50:52.846Z,10.57
2019-03-04T06:51:58.254Z,10.59
2019-03-04T06:53:03.319Z,10.56
2019-03-04T06:54:28.070Z,10.55
2019-03-04T06:55:55.297Z,10.58
2019-03-04T06:57:03.954Z,10.60
2019-03-04T06:58:08.857Z,10.63
2019-03-04T06:59:30.354Z,10.64
2019-03-04T07:01:05.256Z,10.57
2019-03-04T07:02:12.334Z,10.67
2019-03-04T07:03:36.094Z,10.71
2019-03-04T07:05:04.881Z,10.75
2019-03-04T07:06:12.550Z,10.79
2019-03-04T07:07:17.764Z,10.79
2019-03-04T07:09:01.237Z,10.81
2019-03-04T07:10:06.664Z,10.85
2019-03-04T07:11:12.032Z,10.89
2019-03-04T07:12:16.995Z,10.92
2019-03-04T07:13:22.049Z,10.95
2019-03-04T07:14:26.994Z,10.97
2019-03-04T07:15:32.044Z,11.00
2019-03-04T07:16:37.361Z,11.02
2019-03-04T07:17:42.294Z,11.05
2019-03-04T07:18:47.254Z,11.08
2019-03-04T07:20:03.767Z,11.11
2019-03-04T07:21:08.809Z,11.13
2019-03-04T07:22:13.795Z,11.14
2019-03-04T07:23:19.000Z,11.17
2019-03-04T07:24:24.069Z,11.18
2019-03-04T07:25:28.995Z,11.21
2019-03-04T07:26:34.404Z,11.23
2019-03-04T07:27:39.450Z,11.24
2019-03-04T07:28:44.390Z,11.28
2019-03-04T07:29:49.573Z,11.31
2019-03-04T07:30:54.783Z,11.33
2019-03-04T07:32:00.183Z,11.37
2019-03-04T07:33:05.250Z,11.41
2019-03-04T07:34:10.345Z,11.45
2019-03-04T07:35:15.540Z,11.52
2019-03-04T07:36:20.802Z,11.55
2019-03-04T07:37:25.926Z,11.61
2019-03-04T07:38:43.337Z,11.66
2019-03-04T07:39:48.437Z,11.70
2019-03-04T07:40:53.632Z,11.76
2019-03-04T07:41:59.735Z,11.81
2019-03-04T07:43:04.694Z,11.85
2019-03-04T07:44:09.864Z,11.90
2019-03-04T07:45:14.944Z,11.95
2019-03-04T07:46:20.273Z,11.99
2019-03-04T07:47:25.205Z,12.04
2019-03-04T07:48:30.519Z,12.08
2019-03-04T07:49:36.021Z,12.10
2019-03-04T07:50:41.241Z,12.12
2019-03-04T07:51:46.381Z,12.16
2019-03-04T07:52:57.507Z,12.19
2019-03-04T07:54:02.761Z,12.22
2019-03-04T07:55:08.069Z,12.27
2019-03-04T07:56:13.195Z,12.28
2019-03-04T07:57:18.172Z,12.30
2019-03-04T07:58:23.212Z,12.34
2019-03-04T07:59:28.467Z,12.35
2019-03-04T08:00:33.561Z,12.35
2019-03-04T08:01:38.853Z,12.37
2019-03-04T08:02:44.020Z,12.38
2019-03-04T08:03:49.022Z,12.40
2019-03-04T08:04:54.251Z,12.43
2019-03-04T08:05:59.316Z,12.46
2019-03-04T08:07:41.696Z,12.47
2019-03-04T08:09:26.050Z,12.49
2019-03-04T08:10:52.312Z,12.51
2019-03-04T08:12:37.142Z,12.50
2019-03-04T08:13:45.818Z,12.51
2019-03-04T08:14:50.828Z,12.48
2019-03-04T08:15:57.299Z,12.46
2019-03-04T08:17:02.232Z,12.43
2019-03-04T08:18:07.301Z,12.42
2019-03-04T08:19:12.260Z,12.40
2019-03-04T08:20:17.304Z,12.40
2019-03-04T08:21:22.431Z,12.40
2019-03-04T08:22:27.464Z,12.39
2019-03-04T08:23:32.498Z,12.39
2019-03-04T08:24:37.613Z,12.36
2019-03-04T08:25:42.873Z,12.35
2019-03-04T08:26:47.882Z,12.34
2019-03-04T08:27:52.931Z,12.34
2019-03-04T08:28:58.817Z,12.32
2019-03-04T08:30:04.456Z,12.27
2019-03-04T08:31:09.724Z,12.31
2019-03-04T08:32:14.762Z,12.32
2019-03-04T08:33:19.829Z,12.35
2019-03-04T08:34:31.064Z,12.37
2019-03-04T08:35:32.005Z,12.36
2019-03-04T08:36:36.898Z,12.37
2019-03-04T08:37:42.289Z,12.40
2019-03-04T08:38:47.464Z,12.41
2019-03-04T08:39:53.397Z,12.45
2019-03-04T08:41:00.926Z,12.48
2019-03-04T08:42:07.137Z,12.50
2019-03-04T08:43:12.800Z,12.50
2019-03-04T08:44:18.212Z,12.53
2019-03-04T08:45:23.710Z,12.57
2019-03-04T08:46:29.172Z,12.63
2019-03-04T08:47:34.567Z,12.68
2019-03-04T08:48:40.451Z,12.75
2019-03-04T08:49:46.254Z,12.80
2019-03-04T08:50:51.274Z,12.87
2019-03-04T08:51:56.309Z,12.92
2019-03-04T08:53:01.471Z,12.95
2019-03-04T08:54:06.434Z,12.99
2019-03-04T08:55:12.732Z,13.03
2019-03-04T08:56:17.630Z,13.10
2019-03-04T08:57:22.653Z,13.15
2019-03-04T08:58:27.988Z,13.20
2019-03-04T08:59:32.928Z,13.25
2019-03-04T09:00:38.140Z,13.31
2019-03-04T09:01:43.225Z,13.33
2019-03-04T09:02:48.346Z,13.35
2019-03-04T09:03:53.810Z,13.38
2019-03-04T09:04:59.047Z,13.39
2019-03-04T09:06:04.004Z,13.42
2019-03-04T09:07:09.440Z,13.46
2019-03-04T09:08:14.481Z,13.48
2019-03-04T09:09:19.567Z,13.52
2019-03-04T09:10:26.119Z,13.54
2019-03-04T09:11:31.049Z,13.57
2019-03-04T09:12:36.103Z,13.60
2019-03-04T09:13:41.116Z,13.58
2019-03-04T09:14:46.149Z,13.58
2019-03-04T09:15:51.308Z,13.57
2019-03-04T09:16:56.304Z,13.55
2019-03-04T09:18:01.310Z,13.52
2019-03-04T09:19:06.320Z,13.52
2019-03-04T09:20:11.536Z,13.54
2019-03-04T09:21:16.819Z,13.57
2019-03-04T09:22:21.979Z,13.59
2019-03-04T09:23:26.953Z,13.60
2019-03-04T09:24:31.985Z,13.59
2019-03-04T09:25:43.078Z,13.57
2019-03-04T09:26:48.626Z,13.56
2019-03-04T09:27:53.712Z,13.57
2019-03-04T09:28:58.763Z,13.57
2019-03-04T09:30:04.089Z,13.56
2019-03-04T09:31:09.198Z,13.55
2019-03-04T09:32:14.158Z,13.57
2019-03-04T09:33:19.364Z,13.53
2019-03-04T09:34:24.412Z,13.52
2019-03-04T09:35:29.458Z,13.48
2019-03-04T09:36:34.640Z,13.45
2019-03-04T09:37:39.658Z,13.39
2019-03-04T09:38:44.822Z,13.36
2019-03-04T09:39:50.047Z,13.34
2019-03-04T09:40:55.004Z,13.32
2019-03-04T09:42:10.216Z,13.29
2019-03-04T09:43:15.331Z,13.28
2019-03-04T09:44:20.356Z,13.26
2019-03-04T09:45:25.420Z,13.24
2019-03-04T09:46:30.678Z,13.22
2019-03-04T09:47:35.740Z,13.21
2019-03-04T09:48:40.728Z,13.21
2019-03-04T09:49:45.618Z,13.21
2019-03-04T09:50:50.560Z,13.21
2019-03-04T09:51:55.715Z,13.22
2019-03-04T09:53:00.699Z,13.24
2019-03-04T09:54:06.023Z,13.24
2019-03-04T09:55:11.965Z,13.24
2019-03-04T09:56:16.999Z,13.24
2019-03-04T09:57:22.216Z,13.24
2019-03-04T09:58:27.171Z,13.27
2019-03-04T09:59:32.085Z,13.30
2019-03-04T10:01:07.631Z,13.37
2019-03-04T10:02:24.501Z,13.50
2019-03-04T10:04:10.960Z,13.64
2019-03-04T10:05:41.413Z,13.77
2019-03-04T10:07:17.800Z,13.90
2019-03-04T10:08:33.065Z,13.96
2019-03-04T10:10:03.442Z,13.93
2019-03-04T10:11:52.693Z,13.86
2019-03-04T10:13:08.839Z,13.79
2019-03-04T10:14:33.805Z,13.72
2019-03-04T10:15:54.229Z,13.63
2019-03-04T10:17:27.773Z,13.56
2019-03-04T10:19:09.716Z,13.50
2019-03-04T10:20:44.957Z,13.44
2019-03-04T10:22:17.233Z,13.40
2019-03-04T10:23:50.437Z,13.38
2019-03-04T10:25:34.710Z,13.37
2019-03-04T10:27:33.069Z,13.35
2019-03-04T10:29:08.324Z,13.30
2019-03-04T10:30:43.896Z,13.23
2019-03-04T10:32:32.096Z,13.20
2019-03-04T10:34:20.320Z,13.20
2019-03-04T10:35:44.175Z,13.23
2019-03-04T10:37:48.377Z,13.25
2019-03-04T10:39:24.930Z,13.24
2019-03-04T10:41:10.941Z,13.24
2019-03-04T10:43:08.802Z,13.29
2019-03-04T10:44:37.911Z,13.34
2019-03-04T10:46:24.250Z,13.39
2019-03-04T10:47:29.252Z,13.40
2019-03-04T10:48:34.248Z,13.42
2019-03-04T10:49:39.531Z,13.42
2019-03-04T10:50:44.565Z,13.40
2019-03-04T10:51:49.785Z,13.39
2019-03-04T10:52:54.854Z,13.38
2019-03-04T10:54:00.529Z,13.35
2019-03-04T10:55:06.727Z,13.34
2019-03-04T10:56:11.704Z,13.39
2019-03-04T10:57:16.572Z,13.44
2019-03-04T10:58:21.915Z,13.48
2019-03-04T10:59:26.833Z,13.55
2019-03-04T11:00:32.224Z,13.55
2019-03-04T11:01:37.202Z,13.52
2019-03-04T11:02:42.298Z,13.52
2019-03-04T11:03:47.302Z,13.50
2019-03-04T11:04:52.347Z,13.46
2019-03-04T11:05:57.331Z,13.40
2019-03-04T11:07:02.334Z,13.28
2019-03-04T11:08:07.302Z,13.06
2019-03-04T11:09:12.400Z,12.77
2019-03-04T11:10:17.408Z,12.49
2019-03-04T11:11:29.532Z,12.27
2019-03-04T11:12:29.098Z,12.07
2019-03-04T11:13:34.129Z,11.88
2019-03-04T11:14:39.109Z,11.74
2019-03-04T11:15:44.353Z,11.58
2019-03-04T11:16:49.497Z,11.43
2019-03-04T11:17:55.193Z,11.31
2019-03-04T11:19:00.152Z,11.21
2019-03-04T11:20:05.784Z,11.12
2019-03-04T11:21:11.090Z,11.04
2019-03-04T11:22:16.102Z,10.94
2019-03-04T11:23:21.474Z,10.85
2019-03-04T11:24:26.464Z,10.77
2019-03-04T11:25:31.765Z,10.72
2019-03-04T11:26:36.744Z,10.67
2019-03-04T11:27:42.129Z,10.62
2019-03-04T11:28:47.186Z,10.59
2019-03-04T11:29:52.211Z,10.58
2019-03-04T11:30:57.282Z,10.58
2019-03-04T11:32:02.341Z,10.56
2019-03-04T11:33:07.356Z,10.62
2019-03-04T11:34:12.457Z,10.62
2019-03-04T11:35:17.644Z,10.64
2019-03-04T11:36:22.576Z,10.66
2019-03-04T11:37:27.592Z,10.66
2019-03-04T11:38:43.581Z,10.68
2019-03-04T11:40:03.765Z,10.68
2019-03-04T11:41:09.993Z,10.68
2019-03-04T11:42:15.024Z,10.69
2019-03-04T11:43:19.982Z,10.69
2019-03-04T11:44:24.920Z,10.70
2019-03-04T11:45:29.843Z,10.68
2019-03-04T11:46:35.306Z,10.68
2019-03-04T11:47:40.539Z,10.73
2019-03-04T11:48:45.826Z,10.74
2019-03-04T11:49:50.746Z,10.78
2019-03-04T11:50:55.699Z,10.82
2019-03-04T11:52:00.685Z,10.83
2019-03-04T11:53:05.689Z,10.90
2019-03-04T11:54:10.575Z,11.03
2019-03-04T11:55:15.771Z,11.13
2019-03-04T11:56:20.722Z,11.23
2019-03-04T11:57:25.889Z,11.29
2019-03-04T11:58:30.831Z,11.38
2019-03-04T11:59:36.047Z,11.48
2019-03-04T12:00:45.267Z,11.69
2019-03-04T12:01:50.238Z,11.69
2019-03-04T12:02:55.263Z,11.75
2019-03-04T12:04:00.548Z,11.84
2019-03-04T12:05:05.951Z,11.87
2019-03-04T12:06:11.169Z,11.91
2019-03-04T12:07:16.200Z,11.96
2019-03-04T12:08:21.222Z,12.02
2019-03-04T12:09:26.553Z,12.07
2019-03-04T12:10:31.668Z,12.09
2019-03-04T12:11:38.462Z,12.10
2019-03-04T12:12:43.764Z,12.13
2019-03-04T12:13:48.751Z,12.15
2019-03-04T12:14:53.643Z,12.18
2019-03-04T12:15:58.608Z,12.21
2019-03-04T12:17:03.714Z,12.25
2019-03-04T12:18:08.773Z,12.30
2019-03-04T12:19:13.780Z,12.33
2019-03-04T12:20:19.347Z,12.37
2019-03-04T12:21:25.808Z,12.38
2019-03-04T12:22:32.454Z,12.37
2019-03-04T12:23:39.885Z,12.35
2019-03-04T12:24:47.575Z,12.35
2019-03-04T12:25:52.759Z,12.35
2019-03-04T12:26:57.988Z,12.34
2019-03-04T12:28:05.702Z,12.34
2019-03-04T12:29:11.541Z,12.30
2019-03-04T12:30:18.643Z,12.29
2019-03-04T12:31:28.289Z,12.28
2019-03-04T12:32:34.575Z,12.31
2019-03-04T12:33:40.122Z,12.32
2019-03-04T12:34:45.276Z,12.31
2019-03-04T12:35:50.416Z,12.32
2019-03-04T12:36:56.924Z,12.37
2019-03-04T12:38:04.492Z,12.43
2019-03-04T12:39:11.565Z,12.44
2019-03-04T12:40:17.723Z,12.42
2019-03-04T12:41:23.018Z,12.42
2019-03-04T12:42:28.641Z,12.40
2019-03-04T12:43:33.790Z,12.41
2019-03-04T12:44:38.894Z,12.42
2019-03-04T12:45:43.881Z,12.47
2019-03-04T12:46:48.966Z,12.50
2019-03-04T12:47:54.040Z,12.53
2019-03-04T12:48:59.029Z,12.56
2019-03-04T12:50:04.949Z,12.57
2019-03-04T12:51:09.984Z,12.51
2019-03-04T12:52:14.988Z,12.47
2019-03-04T12:53:20.148Z,12.43
2019-03-04T12:54:25.448Z,12.40
2019-03-04T12:55:30.495Z,12.37
2019-03-04T12:56:35.513Z,12.36
2019-03-04T12:57:40.541Z,12.36
2019-03-04T12:58:45.877Z,12.35
2019-03-04T12:59:50.840Z,12.34
2019-03-04T13:00:56.095Z,12.32
2019-03-04T13:02:01.429Z,12.31
2019-03-04T13:03:06.925Z,12.31
2019-03-04T13:04:11.939Z,12.33
2019-03-04T13:05:17.315Z,12.34
2019-03-04T13:06:22.396Z,12.31
2019-03-04T13:07:27.649Z,12.27
2019-03-04T13:08:32.774Z,12.24
2019-03-04T13:09:37.757Z,12.24
2019-03-04T13:10:43.147Z,12.25
2019-03-04T13:11:48.081Z,12.23
2019-03-04T13:12:53.086Z,12.23
2019-03-04T13:13:58.080Z,12.20
2019-03-04T13:15:03.159Z,12.16
2019-03-04T13:16:08.118Z,12.13
2019-03-04T13:17:13.022Z,12.15
2019-03-04T13:18:18.239Z,12.19
2019-03-04T13:19:23.243Z,12.19
2019-03-04T13:20:28.292Z,12.18
2019-03-04T13:21:33.428Z,12.13
2019-03-04T13:22:38.453Z,12.08
2019-03-04T13:23:43.569Z,12.05
2019-03-04T13:24:48.640Z,12.05
2019-03-04T13:25:53.903Z,12.07
2019-03-04T13:26:58.909Z,12.11
2019-03-04T13:28:08.240Z,12.16
2019-03-04T13:29:11.132Z,12.23
2019-03-04T13:30:18.269Z,12.30
2019-03-04T13:31:23.429Z,12.35
2019-03-04T13:32:28.643Z,12.36
2019-03-04T13:33:33.615Z,12.36
2019-03-04T13:34:38.707Z,12.38
2019-03-04T13:35:43.835Z,12.38
2019-03-04T13:36:48.794Z,12.38
2019-03-04T13:37:53.919Z,12.41
2019-03-04T13:38:58.898Z,12.41
2019-03-04T13:40:04.408Z,12.43
2019-03-04T13:41:09.446Z,12.44
2019-03-04T13:42:14.877Z,12.47
2019-03-04T13:43:19.927Z,12.49
2019-03-04T13:44:25.055Z,12.51
2019-03-04T13:45:30.419Z,12.56
2019-03-04T13:46:35.717Z,12.60
2019-03-04T13:47:40.844Z,12.58
2019-03-04T13:48:45.905Z,12.58
2019-03-04T13:49:51.189Z,12.57
2019-03-04T13:50:56.292Z,12.56
2019-03-04T13:52:01.360Z,12.57
2019-03-04T13:53:06.611Z,12.56
2019-03-04T13:54:11.706Z,12.56
2019-03-04T13:55:17.343Z,12.54
2019-03-04T13:56:22.610Z,12.52
2019-03-04T13:57:27.575Z,12.49
2019-03-04T13:58:32.603Z,12.49
2019-03-04T13:59:37.618Z,12.48
2019-03-04T14:00:42.938Z,12.47
2019-03-04T14:01:47.949Z,12.48
2019-03-04T14:02:53.042Z,12.48
2019-03-04T14:03:57.964Z,12.51
2019-03-04T14:05:02.922Z,12.52
2019-03-04T14:06:08.091Z,12.56
2019-03-04T14:07:13.470Z,12.56
2019-03-04T14:08:18.587Z,12.55
2019-03-04T14:09:23.746Z,12.55
2019-03-04T14:10:31.342Z,12.53
2019-03-04T14:11:36.471Z,12.52
2019-03-04T14:12:41.604Z,12.52
2019-03-04T14:13:46.973Z,12.52
2019-03-04T14:14:52.027Z,12.53
2019-03-04T14:15:57.050Z,12.54
2019-03-04T14:17:02.083Z,12.57
2019-03-04T14:18:07.441Z,12.56
2019-03-04T14:19:12.754Z,12.53
2019-03-04T14:20:17.841Z,12.52
2019-03-04T14:21:23.356Z,12.48
2019-03-04T14:22:28.469Z,12.46
2019-03-04T14:23:33.581Z,12.44
2019-03-04T14:24:38.853Z,12.42
2019-03-04T14:25:43.775Z,12.39